BLKO2: Chikashia River, Blackwell, OK

Data processed at Sat Dec 09 2017 23:36


All information presented herein is the property of the government of the United States of America and may be revised or deleted at any time without prior notice.
Dissemination of this information without the expressed written consent of the Public Affairs Office, Tulsa District U.S. Army Corps of Engineers is strictly prohibited.
These data are gathered electronically and, as presented, have not undergone any form of quality control. These data are not guaranteed to be valid or correct.
Go to home page.
Go to station list.

Upstream stations:

Downstream station:
Previous Day
Next Day
Current Day
    
SHEF ID:       BLKO2     Chikaskia River near Blackwell,
STATION TYPE:  

               PRECIP     STAGE  STAGE(2)  RIV-FLOW  BAT-LOAD
                   in        ft        ft       cfs      volt
              Ccp-Rev   Ccp-Rev   Ccp-Rev   Ccp-Rev   Ccp-Rev
(US/Central)
12/07 00:00      0.00      2.51      2.45       108     12.49
12/07 01:00      0.00      2.50      2.45       105     12.49
12/07 02:00      0.00      2.50      2.46       105     12.49
12/07 03:00      0.00      2.49      2.45       103     12.41
12/07 04:00      0.00      2.48      2.46       101     12.41
12/07 05:00      0.00      2.47      2.46        99     12.41
12/07 06:00      0.00      2.47      2.46        99     12.33
12/07 07:00      0.00      2.47      2.47        99     12.33
12/07 08:00      0.00      2.48      2.47       101     12.33
12/07 09:00      0.00      2.53      2.46       112     13.37
12/07 10:00      0.00      2.57      2.47       121     13.60
12/07 11:00      0.00      2.58      2.47       123     13.76
12/07 12:00      0.00      2.59      2.47       125     14.24
12/07 13:00      0.00      2.59      2.48       125     14.40
12/07 14:00      0.00      2.60      2.48       127     14.00
12/07 15:00      0.00      2.59      2.48       125     13.68
12/07 16:00      0.00      2.56      2.48       119     13.60
12/07 17:00      0.00      2.51      2.48       108     13.37
12/07 18:00      0.00      2.51      2.47       108     12.73
12/07 19:00      0.00      2.50      2.47       105     12.57
12/07 20:00      0.00      2.50      2.46       105     12.57
12/07 21:00      0.00      2.49      2.46       103     12.57
12/07 22:00      0.00      2.47      2.45        99     12.49
12/07 23:00      0.00      2.46      2.45        97     12.49